Time;durP1;ratioP1;P1;durP2;ratioP2;P2;SDS_P1;SDS_P2;PMS_P1;PMS_P2;Temp;Humidity;BMP_temperature;BMP_pressure;BME280_temperature;BME280_humidity;BME280_pressure;Samples;Min_cycle;Max_cycle;Signal;HPM_P1;HPM_P2
2022/12/10 00:01:50;;;;;;;10.37;5.30;;;1.00;99.90;;;;;;4408029;28;657473;-64
2022/12/10 00:04:37;;;;;;;10.27;5.13;;;1.00;99.90;;;;;;4388473;28;658935;-66
2022/12/10 00:07:24;;;;;;;15.30;6.73;;;1.00;99.90;;;;;;4418908;28;657722;-65
2022/12/10 00:10:11;;;;;;;9.70;5.32;;;1.00;99.90;;;;;;4393167;28;657683;-64
2022/12/10 00:12:58;;;;;;;14.70;6.90;;;1.00;99.90;;;;;;4413372;28;657859;-65
2022/12/10 00:15:47;;;;;;;7.47;4.10;;;1.00;99.90;;;;;;4393013;28;657513;-65
2022/12/10 00:18:34;;;;;;;10.13;5.23;;;1.10;99.90;;;;;;4416095;28;656530;-65
2022/12/10 00:21:23;;;;;;;11.80;5.90;;;1.00;99.90;;;;;;4396437;28;657765;-65
2022/12/10 00:24:10;;;;;;;7.70;4.93;;;1.10;99.90;;;;;;4399939;28;657756;-65
2022/12/10 00:26:57;;;;;;;22.33;11.07;;;1.00;99.90;;;;;;4414684;28;657278;-65
2022/12/10 00:29:44;;;;;;;13.53;6.23;;;1.00;99.90;;;;;;4411590;28;658599;-65
2022/12/10 00:32:33;;;;;;;7.33;4.33;;;1.00;99.90;;;;;;4391002;28;658029;-64
2022/12/10 00:35:20;;;;;;;7.68;4.10;;;1.00;99.90;;;;;;4388817;28;658589;-66
2022/12/10 00:38:07;;;;;;;9.83;5.10;;;1.00;99.90;;;;;;4419370;28;656422;-64
2022/12/10 00:40:54;;;;;;;8.20;4.30;;;1.00;99.90;;;;;;4411093;28;656219;-64
2022/12/10 00:43:42;;;;;;;5.77;4.00;;;1.00;99.90;;;;;;4395321;28;658185;-65
2022/12/10 00:46:29;;;;;;;11.63;5.97;;;1.10;99.90;;;;;;4411674;28;656809;-65
2022/12/10 00:49:18;;;;;;;9.20;5.20;;;1.10;99.90;;;;;;4389551;28;658843;-65
2022/12/10 00:52:05;;;;;;;7.97;4.77;;;1.00;99.90;;;;;;4398983;28;656709;-66
2022/12/10 00:54:52;;;;;;;8.90;5.43;;;1.00;99.90;;;;;;4417635;28;656889;-64
2022/12/10 00:57:39;;;;;;;7.50;4.60;;;1.00;99.90;;;;;;4415935;28;656577;-64
2022/12/10 01:00:27;;;;;;;13.73;6.93;;;1.00;99.90;;;;;;4469738;28;656301;-65
2022/12/10 01:03:14;;;;;;;10.93;5.80;;;1.00;99.90;;;;;;4806054;28;534379;-64
2022/12/10 01:06:11;;;;;;;7.13;4.27;;;1.00;99.90;;;;;;4393864;28;657554;-66
2022/12/10 01:08:59;;;;;;;6.70;4.40;;;1.00;99.90;;;;;;4388340;28;657118;-66
2022/12/10 01:11:47;;;;;;;6.73;4.33;;;1.00;99.90;;;;;;4394214;28;656981;-64
2022/12/10 01:14:34;;;;;;;8.37;5.20;;;1.00;99.90;;;;;;4411900;28;658427;-65
2022/12/10 01:17:21;;;;;;;7.97;5.07;;;1.00;99.90;;;;;;4392266;28;656913;-65
2022/12/10 01:20:09;;;;;;;9.77;5.63;;;1.00;99.90;;;;;;4412194;28;656931;-66
2022/12/10 01:22:58;;;;;;;8.33;5.50;;;1.00;99.90;;;;;;4390420;28;657438;-66
2022/12/10 01:25:45;;;;;;;22.30;9.37;;;1.00;99.90;;;;;;4394830;28;656465;-65
2022/12/10 01:28:33;;;;;;;12.27;6.97;;;0.90;99.90;;;;;;4408724;28;658782;-65
2022/12/10 01:31:23;;;;;;;11.37;6.27;;;0.90;99.90;;;;;;4388626;28;658719;-65
2022/12/10 01:34:13;;;;;;;29.37;12.83;;;1.00;99.90;;;;;;4397994;28;658327;-66
2022/12/10 01:37:00;;;;;;;25.27;10.52;;;1.00;99.90;;;;;;4397756;28;658834;-66
2022/12/10 01:39:49;;;;;;;13.20;7.20;;;1.00;99.90;;;;;;4411543;28;658411;-65
2022/12/10 01:42:36;;;;;;;15.07;8.33;;;1.00;99.90;;;;;;4388153;28;657419;-65
2022/12/10 01:45:23;;;;;;;16.10;8.90;;;1.00;99.90;;;;;;4410830;28;658671;-65
2022/12/10 01:48:11;;;;;;;14.00;7.73;;;1.00;99.90;;;;;;4391499;28;657573;-66
2022/12/10 01:50:58;;;;;;;12.25;7.05;;;0.90;99.90;;;;;;4407992;28;659511;-64
2022/12/10 01:53:45;;;;;;;14.63;8.23;;;0.90;99.90;;;;;;4390274;28;657995;-65
2022/12/10 01:56:36;;;;;;;13.40;7.73;;;1.00;99.90;;;;;;4414518;28;658687;-66
2022/12/10 01:59:25;;;;;;;12.77;7.63;;;1.00;99.90;;;;;;4390784;28;657600;-65
2022/12/10 02:02:15;;;;;;;14.30;8.10;;;1.00;99.90;;;;;;4391634;28;658470;-65
2022/12/10 02:05:08;;;;;;;16.13;8.43;;;0.90;99.90;;;;;;4383552;28;658063;-64
2022/12/10 02:08:02;;;;;;;19.63;8.40;;;1.00;99.90;;;;;;4368260;28;657953;-66
2022/12/10 02:10:56;;;;;;;18.70;10.67;;;0.90;99.90;;;;;;4387204;28;657507;-64
2022/12/10 02:13:47;;;;;;;12.07;7.87;;;0.90;99.90;;;;;;4386634;28;659612;-65
2022/12/10 02:16:35;;;;;;;15.60;8.53;;;0.90;99.90;;;;;;4386963;28;658442;-65
2022/12/10 02:19:26;;;;;;;14.73;8.63;;;0.90;99.90;;;;;;4390838;28;658413;-64
2022/12/10 02:22:13;;;;;;;16.27;9.10;;;0.90;99.90;;;;;;4385756;28;658526;-65
2022/12/10 02:25:00;;;;;;;17.63;10.40;;;0.90;99.90;;;;;;4390551;28;657505;-66
2022/12/10 02:27:50;;;;;;;16.13;9.30;;;0.90;99.90;;;;;;4413388;28;659037;-65
2022/12/10 02:30:38;;;;;;;18.63;10.13;;;0.90;99.90;;;;;;4383225;28;659088;-64
2022/12/10 02:33:26;;;;;;;16.07;8.67;;;1.00;99.90;;;;;;4391757;28;659414;-66
2022/12/10 02:36:13;;;;;;;15.07;9.17;;;1.00;99.90;;;;;;4413788;28;658946;-64
2022/12/10 02:39:01;;;;;;;17.40;9.77;;;1.00;99.90;;;;;;4388806;28;657355;-66
2022/12/10 02:41:49;;;;;;;17.53;9.67;;;0.90;99.90;;;;;;4412929;28;658748;-65
2022/12/10 02:44:36;;;;;;;14.80;8.17;;;0.90;99.90;;;;;;4392580;28;657838;-65
2022/12/10 02:47:25;;;;;;;13.97;8.30;;;1.00;99.90;;;;;;4408213;28;657951;-65
2022/12/10 02:50:12;;;;;;;13.93;8.15;;;0.90;99.90;;;;;;4393289;28;658244;-66
2022/12/10 02:52:59;;;;;;;14.83;8.27;;;0.90;99.90;;;;;;4412303;28;657194;-65
2022/12/10 02:55:57;;;;;;;15.87;8.67;;;0.90;99.90;;;;;;4390858;28;658251;-65
2022/12/10 02:58:49;;;;;;;14.20;7.80;;;0.90;99.90;;;;;;4404575;28;657559;-65
2022/12/10 03:01:41;;;;;;;14.13;7.60;;;0.80;99.90;;;;;;4728084;28;658596;-65
2022/12/10 03:04:32;;;;;;;11.00;6.53;;;0.80;99.90;;;;;;4529191;28;534220;-64
2022/12/10 03:07:23;;;;;;;14.33;7.70;;;0.90;99.90;;;;;;4410294;28;657572;-66
2022/12/10 03:10:12;;;;;;;17.73;10.23;;;0.90;99.90;;;;;;4395302;28;658495;-66
2022/12/10 03:13:01;;;;;;;15.73;9.33;;;0.90;99.90;;;;;;4410796;28;659434;-66
2022/12/10 03:15:48;;;;;;;14.23;8.33;;;0.90;99.90;;;;;;4417855;28;659049;-65
2022/12/10 03:18:37;;;;;;;11.00;6.80;;;0.90;99.90;;;;;;4389830;28;657530;-65
2022/12/10 03:21:25;;;;;;;13.23;7.70;;;0.90;99.90;;;;;;4409243;28;658008;-65
2022/12/10 03:24:13;;;;;;;13.70;7.90;;;1.00;99.90;;;;;;4390428;28;660077;-65
2022/12/10 03:27:00;;;;;;;18.33;8.53;;;0.90;99.90;;;;;;4401838;28;657581;-66
2022/12/10 03:29:48;;;;;;;13.67;7.73;;;0.90;99.90;;;;;;4417597;28;658004;-64
2022/12/10 03:32:35;;;;;;;13.40;6.97;;;0.90;99.90;;;;;;4392437;28;657599;-66
2022/12/10 03:35:23;;;;;;;10.73;6.57;;;0.90;99.90;;;;;;4420054;28;658359;-66
2022/12/10 03:38:11;;;;;;;11.90;7.07;;;0.90;99.90;;;;;;4393973;28;657635;-66
2022/12/10 03:40:59;;;;;;;11.07;6.67;;;1.00;99.90;;;;;;4415562;28;657619;-65
2022/12/10 03:43:53;;;;;;;12.57;7.27;;;0.90;99.90;;;;;;4393891;28;658003;-65
2022/12/10 03:46:40;;;;;;;11.27;6.90;;;0.90;99.90;;;;;;4378096;28;657798;-66
2022/12/10 03:49:27;;;;;;;11.97;7.80;;;0.90;99.90;;;;;;4412769;28;658147;-65
2022/12/10 03:52:15;;;;;;;14.93;8.60;;;1.00;99.90;;;;;;4409126;28;657838;-65
2022/12/10 03:55:04;;;;;;;12.23;7.20;;;1.00;99.90;;;;;;4391147;28;658867;-64
2022/12/10 03:57:51;;;;;;;11.37;7.03;;;0.90;99.90;;;;;;4393842;28;658988;-65
2022/12/10 04:00:38;;;;;;;11.23;6.87;;;0.90;99.90;;;;;;4408417;28;658539;-65
2022/12/10 04:03:25;;;;;;;10.55;6.32;;;0.90;99.90;;;;;;4389367;28;657457;-66
2022/12/10 04:06:14;;;;;;;12.97;7.20;;;0.90;99.90;;;;;;4410817;28;658615;-65
2022/12/10 04:09:01;;;;;;;15.83;7.97;;;0.90;99.90;;;;;;4392099;28;657519;-65
2022/12/10 04:11:49;;;;;;;15.68;8.43;;;0.90;99.90;;;;;;4415331;28;658918;-64
2022/12/10 04:17:41;;;;;;;14.60;8.47;;;0.90;99.90;;;;;;4364102;28;660265;-64
2022/12/10 04:26:53;;;;;;;13.13;7.30;;;0.90;99.90;;;;;;4385930;28;657901;-64
2022/12/10 04:29:41;;;;;;;12.73;7.87;;;1.00;99.90;;;;;;4375912;28;658298;-66
2022/12/10 04:32:29;;;;;;;13.90;7.27;;;0.90;99.90;;;;;;4409657;28;658527;-64
2022/12/10 04:35:16;;;;;;;11.90;6.80;;;0.80;99.90;;;;;;4387792;28;657599;-64
2022/12/10 04:38:03;;;;;;;10.67;6.97;;;0.80;99.90;;;;;;4409004;28;658053;-65
2022/12/10 04:40:51;;;;;;;10.97;6.63;;;0.80;99.90;;;;;;4391508;28;658010;-65
2022/12/10 04:43:38;;;;;;;26.80;12.53;;;0.80;99.90;;;;;;4413279;28;659251;-65
2022/12/10 04:46:27;;;;;;;14.15;8.48;;;0.80;99.90;;;;;;4393684;28;658605;-66
2022/12/10 04:49:14;;;;;;;11.97;7.20;;;0.80;99.90;;;;;;4416996;28;657697;-65
2022/12/10 04:52:01;;;;;;;9.37;6.00;;;0.80;99.90;;;;;;4386899;28;657882;-65
2022/12/10 04:54:48;;;;;;;12.63;7.27;;;0.70;99.90;;;;;;4415909;28;657210;-65
2022/12/10 04:57:35;;;;;;;13.13;7.40;;;0.80;99.90;;;;;;4393335;28;657506;-66
2022/12/10 05:00:22;;;;;;;12.37;7.53;;;0.80;99.90;;;;;;4471393;28;658979;-65
2022/12/10 05:03:11;;;;;;;15.03;7.87;;;0.80;99.90;;;;;;4823813;28;574485;-65
2022/12/10 05:06:01;;;;;;;20.07;9.37;;;0.80;99.90;;;;;;4385772;28;658232;-65
2022/12/10 05:08:49;;;;;;;15.43;7.90;;;0.80;99.90;;;;;;4387586;28;658182;-64
2022/12/10 05:11:36;;;;;;;18.17;8.23;;;0.80;99.90;;;;;;4391893;28;657945;-65
2022/12/10 05:14:23;;;;;;;15.23;8.27;;;0.80;99.90;;;;;;4413282;28;658816;-64
2022/12/10 05:17:10;;;;;;;13.37;7.80;;;0.80;99.90;;;;;;4395250;28;657534;-65
2022/12/10 05:19:59;;;;;;;14.37;7.33;;;0.80;99.90;;;;;;4407322;28;658396;-65
2022/12/10 05:25:58;;;;;;;12.97;7.03;;;0.80;99.90;;;;;;4367744;28;658133;-66
2022/12/10 05:28:46;;;;;;;12.37;7.10;;;0.80;99.90;;;;;;4372307;28;657223;-66
2022/12/10 05:31:33;;;;;;;11.03;6.17;;;0.80;99.90;;;;;;4408206;28;657662;-66
2022/12/10 05:34:21;;;;;;;12.40;7.03;;;0.70;99.90;;;;;;4395577;28;657825;-66
2022/12/10 05:37:09;;;;;;;11.20;6.87;;;0.80;99.90;;;;;;4416894;28;658629;-65
2022/12/10 05:39:56;;;;;;;10.67;6.27;;;0.80;99.90;;;;;;4390580;28;657375;-67
2022/12/10 05:42:43;;;;;;;11.37;6.50;;;0.80;99.90;;;;;;4410529;28;658026;-66
2022/12/10 05:45:32;;;;;;;11.30;6.73;;;0.80;99.90;;;;;;4392446;28;657621;-65
2022/12/10 05:48:20;;;;;;;10.60;6.93;;;0.70;99.90;;;;;;4406883;28;657961;-66
2022/12/10 05:51:08;;;;;;;12.27;6.87;;;0.70;99.90;;;;;;4413537;28;657512;-65
2022/12/10 05:53:57;;;;;;;14.25;8.48;;;0.80;99.90;;;;;;4392919;28;657914;-66
2022/12/10 05:56:44;;;;;;;28.40;15.80;;;0.80;99.90;;;;;;4407644;28;658092;-65
2022/12/10 05:59:31;;;;;;;27.20;13.63;;;0.80;99.90;;;;;;4391500;28;658715;-65
2022/12/10 06:02:18;;;;;;;25.93;12.77;;;0.80;99.90;;;;;;4409592;28;658644;-66
2022/12/10 06:05:06;;;;;;;20.90;10.73;;;0.70;99.90;;;;;;4387586;28;659766;-65
2022/12/10 06:07:53;;;;;;;21.45;11.73;;;0.80;99.90;;;;;;4405914;28;660150;-66
2022/12/10 06:10:42;;;;;;;16.13;8.13;;;0.80;99.90;;;;;;4389634;28;658784;-66
2022/12/10 06:13:29;;;;;;;17.40;8.83;;;0.80;99.90;;;;;;4409387;28;658347;-66
2022/12/10 06:16:16;;;;;;;13.50;7.50;;;0.80;99.90;;;;;;4388289;28;657702;-66
2022/12/10 06:19:03;;;;;;;13.13;7.83;;;0.70;99.90;;;;;;4409222;28;658494;-65
2022/12/10 06:21:50;;;;;;;15.97;8.27;;;0.70;99.90;;;;;;4388880;28;657609;-67
2022/12/10 06:24:37;;;;;;;16.20;9.13;;;0.60;99.90;;;;;;4414121;28;657949;-65
2022/12/10 06:27:26;;;;;;;15.93;8.57;;;0.60;99.90;;;;;;4411357;28;657823;-66
2022/12/10 06:30:13;;;;;;;15.68;8.43;;;0.70;99.90;;;;;;4383923;28;658969;-65
2022/12/10 06:33:00;;;;;;;16.30;9.03;;;0.70;99.90;;;;;;4393420;28;657535;-66
2022/12/10 06:35:47;;;;;;;18.27;9.33;;;0.70;99.90;;;;;;4411724;28;658236;-65
2022/12/10 06:38:35;;;;;;;18.37;10.53;;;0.70;99.90;;;;;;4409802;28;657706;-67
2022/12/10 06:41:22;;;;;;;20.17;9.87;;;0.70;99.90;;;;;;4406546;28;660186;-66
2022/12/10 06:44:12;;;;;;;24.90;13.67;;;0.80;99.90;;;;;;4406244;28;657431;-67
2022/12/10 06:46:59;;;;;;;20.57;11.03;;;0.80;99.90;;;;;;4410088;28;658470;-67
2022/12/10 06:49:46;;;;;;;23.37;12.67;;;0.80;99.90;;;;;;4389169;28;658915;-65
2022/12/10 06:52:33;;;;;;;21.87;11.37;;;0.80;99.90;;;;;;4411984;28;660072;-66
2022/12/10 06:55:20;;;;;;;19.08;11.02;;;0.80;99.90;;;;;;4388930;28;660630;-67
2022/12/10 06:58:07;;;;;;;22.23;12.67;;;0.70;99.90;;;;;;4409893;28;659831;-66
2022/12/10 07:01:02;;;;;;;19.63;10.83;;;0.70;99.90;;;;;;4405238;28;658971;-65
2022/12/10 07:03:50;;;;;;;16.23;9.43;;;0.80;99.90;;;;;;4388385;28;658700;-65
2022/12/10 07:06:37;;;;;;;16.03;10.43;;;0.90;99.90;;;;;;4389675;28;658212;-66
2022/12/10 07:09:24;;;;;;;15.95;9.38;;;0.80;99.90;;;;;;4410543;28;658498;-65
2022/12/10 07:12:12;;;;;;;18.33;9.83;;;0.80;99.90;;;;;;4389155;28;657729;-66
2022/12/10 07:14:59;;;;;;;18.23;10.23;;;0.90;99.90;;;;;;4414609;28;657592;-65
2022/12/10 07:17:47;;;;;;;20.53;10.40;;;0.90;99.90;;;;;;4392186;28;659135;-66
2022/12/10 07:20:34;;;;;;;26.77;13.27;;;0.80;99.90;;;;;;4411822;28;659620;-65
2022/12/10 07:23:22;;;;;;;20.00;11.10;;;0.70;99.90;;;;;;4392296;28;659241;-66
2022/12/10 07:26:09;;;;;;;24.40;12.70;;;0.80;99.90;;;;;;4407279;28;659140;-65
2022/12/10 07:28:56;;;;;;;29.20;13.80;;;0.90;99.90;;;;;;4387842;28;658488;-65
2022/12/10 07:31:43;;;;;;;27.48;15.35;;;0.90;99.90;;;;;;4411767;28;660611;-65
2022/12/10 07:34:32;;;;;;;24.83;14.40;;;0.90;99.90;;;;;;4386437;28;658628;-65
2022/12/10 07:37:19;;;;;;;24.03;13.40;;;0.90;99.90;;;;;;4412785;28;658491;-65
2022/12/10 07:40:07;;;;;;;22.70;12.37;;;0.90;99.90;;;;;;4389204;28;659292;-66
2022/12/10 07:42:54;;;;;;;27.13;12.93;;;1.00;99.90;;;;;;4408812;28;658923;-65
2022/12/10 07:45:41;;;;;;;32.97;14.87;;;1.00;99.90;;;;;;4390422;28;658640;-65
2022/12/10 07:48:28;;;;;;;34.83;14.52;;;1.00;99.90;;;;;;4411344;28;660166;-66
2022/12/10 07:51:17;;;;;;;22.47;11.67;;;1.10;99.90;;;;;;4390076;28;658547;-65
2022/12/10 07:54:04;;;;;;;20.73;10.90;;;1.10;99.90;;;;;;4413741;28;657784;-66
2022/12/10 07:56:51;;;;;;;17.10;9.70;;;1.10;99.90;;;;;;4392852;28;658676;-65
2022/12/10 07:59:39;;;;;;;19.47;9.33;;;1.10;99.90;;;;;;4411416;28;658202;-65
2022/12/10 08:02:26;;;;;;;36.97;18.07;;;1.10;99.90;;;;;;4393115;28;657464;-65
2022/12/10 08:05:13;;;;;;;29.55;14.23;;;1.10;99.90;;;;;;4416624;28;658200;-65
2022/12/10 08:08:01;;;;;;;19.77;10.20;;;1.10;99.90;;;;;;4397226;28;658845;-66
2022/12/10 08:10:49;;;;;;;24.67;12.47;;;1.20;99.90;;;;;;4414852;28;659204;-65
2022/12/10 08:13:36;;;;;;;25.47;12.80;;;1.20;99.90;;;;;;4390785;28;658635;-65
2022/12/10 08:16:25;;;;;;;17.43;9.83;;;1.20;99.90;;;;;;4417409;28;659416;-66
2022/12/10 08:19:12;;;;;;;27.50;12.73;;;1.20;99.90;;;;;;4388622;28;658542;-66
2022/12/10 08:21:59;;;;;;;17.33;9.80;;;1.30;99.90;;;;;;4418078;28;658881;-66
2022/12/10 08:24:47;;;;;;;17.73;9.80;;;1.30;99.90;;;;;;4396299;28;657776;-65
2022/12/10 08:27:34;;;;;;;34.40;15.10;;;1.40;99.90;;;;;;4412199;28;657565;-67
2022/12/10 08:30:22;;;;;;;21.57;10.40;;;1.50;99.90;;;;;;4396698;28;658994;-65
2022/12/10 08:33:09;;;;;;;26.20;12.23;;;1.50;99.90;;;;;;4416550;28;659067;-65
2022/12/10 08:35:58;;;;;;;17.93;9.67;;;1.50;99.90;;;;;;4396455;28;658917;-65
2022/12/10 08:38:46;;;;;;;17.93;9.67;;;1.60;99.90;;;;;;4399163;28;657825;-65
2022/12/10 08:41:34;;;;;;;25.50;11.87;;;1.50;99.90;;;;;;4409151;28;659500;-65
2022/12/10 08:44:21;;;;;;;24.33;11.13;;;1.50;99.90;;;;;;4388428;28;658574;-65
2022/12/10 08:47:08;;;;;;;23.70;10.43;;;1.50;99.90;;;;;;4420154;28;659609;-65
2022/12/10 08:49:55;;;;;;;90.57;16.33;;;1.40;99.90;;;;;;4393145;28;658892;-65
2022/12/10 08:52:43;;;;;;;27.77;13.20;;;1.40;99.90;;;;;;4411427;28;660702;-65
2022/12/10 08:55:30;;;;;;;19.50;10.32;;;1.50;99.90;;;;;;4393756;28;658750;-67
2022/12/10 08:58:19;;;;;;;18.00;9.47;;;1.50;99.90;;;;;;4409972;28;658528;-65
2022/12/10 09:01:07;;;;;;;21.30;10.23;;;1.60;99.90;;;;;;4621921;28;657932;-66
2022/12/10 09:03:54;;;;;;;27.30;13.70;;;1.70;99.90;;;;;;4651373;28;576062;-65
2022/12/10 09:06:42;;;;;;;80.63;22.37;;;1.70;99.90;;;;;;4387482;28;658568;-67
2022/12/10 09:09:29;;;;;;;26.13;12.40;;;1.70;99.90;;;;;;4416189;28;659207;-65
2022/12/10 09:12:16;;;;;;;21.90;11.13;;;1.80;99.90;;;;;;4389696;28;658783;-67
2022/12/10 09:15:05;;;;;;;46.77;16.33;;;1.80;99.90;;;;;;4415091;28;659664;-65
2022/12/10 09:17:52;;;;;;;44.60;15.43;;;1.70;99.90;;;;;;4393177;28;660071;-66
2022/12/10 09:20:40;;;;;;;22.97;10.90;;;1.80;99.90;;;;;;4410683;28;658815;-67
2022/12/10 09:23:27;;;;;;;40.35;13.52;;;1.70;99.90;;;;;;4420575;28;658804;-67
2022/12/10 09:26:15;;;;;;;28.53;12.53;;;1.70;99.90;;;;;;4416385;28;658405;-65
2022/12/10 09:29:03;;;;;;;22.93;11.07;;;1.70;99.90;;;;;;4381101;28;660335;-66
2022/12/10 09:31:52;;;;;;;22.80;10.63;;;1.70;99.90;;;;;;4402235;28;658844;-66
2022/12/10 09:34:39;;;;;;;24.67;11.43;;;1.80;99.90;;;;;;4408349;28;659920;-65
2022/12/10 09:37:26;;;;;;;36.63;12.90;;;1.70;99.90;;;;;;4388785;28;658951;-65
2022/12/10 09:40:16;;;;;;;40.47;13.60;;;1.70;99.90;;;;;;4410439;28;660223;-65
2022/12/10 09:43:05;;;;;;;33.67;13.00;;;1.70;99.90;;;;;;4383485;28;659664;-65
2022/12/10 09:45:59;;;;;;;33.70;13.20;;;1.70;99.90;;;;;;4383055;28;659897;-65
2022/12/10 09:49:01;;;;;;;19.83;10.77;;;1.80;99.90;;;;;;4359244;28;660584;-65
2022/12/10 09:51:48;;;;;;;25.20;11.77;;;1.90;99.90;;;;;;4381480;28;659928;-65
2022/12/10 09:54:38;;;;;;;35.58;12.20;;;1.90;99.90;;;;;;4385668;28;658829;-67
2022/12/10 09:57:28;;;;;;;21.33;10.90;;;1.90;99.90;;;;;;4388414;28;658838;-66
2022/12/10 10:00:21;;;;;;;26.63;11.43;;;2.00;99.90;;;;;;4396996;28;658879;-66
2022/12/10 10:03:10;;;;;;;28.20;12.20;;;2.00;99.90;;;;;;4385064;28;659268;-65
2022/12/10 10:05:59;;;;;;;35.60;12.80;;;2.10;99.90;;;;;;4385663;28;659794;-66
2022/12/10 10:08:47;;;;;;;22.63;11.63;;;2.10;99.90;;;;;;4381521;28;658648;-66
2022/12/10 10:11:34;;;;;;;32.50;11.37;;;2.20;99.90;;;;;;4407957;28;659240;-66
2022/12/10 10:14:25;;;;;;;21.27;11.30;;;2.30;99.90;;;;;;4386025;28;658873;-65
2022/12/10 10:17:15;;;;;;;20.50;10.73;;;2.30;99.90;;;;;;4384799;28;659867;-66
2022/12/10 10:20:02;;;;;;;18.27;9.60;;;2.50;99.90;;;;;;4389938;28;660350;-65
2022/12/10 10:22:51;;;;;;;23.73;10.20;;;2.60;99.90;;;;;;4405551;28;657211;-65
2022/12/10 10:25:38;;;;;;;18.20;10.20;;;2.70;99.90;;;;;;4387276;28;659364;-65
2022/12/10 10:28:25;;;;;;;19.80;10.02;;;2.70;99.90;;;;;;4393589;28;659427;-66
2022/12/10 10:31:17;;;;;;;20.57;10.47;;;2.70;99.90;;;;;;4411544;28;659416;-66
2022/12/10 10:34:06;;;;;;;18.00;10.20;;;2.70;99.90;;;;;;4388296;28;658759;-66
2022/12/10 10:36:56;;;;;;;30.27;16.97;;;2.60;99.90;;;;;;4384709;28;659025;-66
2022/12/10 10:39:47;;;;;;;28.50;13.47;;;2.60;99.90;;;;;;4396840;28;659962;-66
2022/12/10 10:42:36;;;;;;;19.00;9.65;;;2.60;99.90;;;;;;4386511;28;659243;-67
2022/12/10 10:45:33;;;;;;;16.70;9.13;;;2.50;99.90;;;;;;4392019;28;658365;-65
2022/12/10 10:48:22;;;;;;;18.27;9.63;;;2.50;99.90;;;;;;4364522;28;659404;-66
2022/12/10 10:51:16;;;;;;;42.77;14.67;;;2.50;99.90;;;;;;4400371;28;657816;-66
2022/12/10 10:54:03;;;;;;;22.10;10.80;;;2.50;99.90;;;;;;4374195;28;659476;-66
2022/12/10 10:56:52;;;;;;;36.77;13.77;;;2.50;99.90;;;;;;4385815;28;659900;-66
2022/12/10 10:59:39;;;;;;;34.47;13.60;;;2.50;99.90;;;;;;4404917;28;659213;-65
2022/12/10 11:02:28;;;;;;;42.95;13.80;;;2.60;99.90;;;;;;4839335;28;658957;-66
2022/12/10 11:05:17;;;;;;;43.80;13.90;;;2.60;99.90;;;;;;4398106;28;659310;-67
2022/12/10 11:08:07;;;;;;;114.33;20.33;;;2.70;99.90;;;;;;4403541;28;660392;-67
2022/12/10 11:10:58;;;;;;;29.10;12.97;;;2.50;99.90;;;;;;4403800;28;659677;-66
2022/12/10 11:13:46;;;;;;;29.40;12.93;;;2.50;99.90;;;;;;4364486;28;659940;-67
2022/12/10 11:16:34;;;;;;;26.23;11.43;;;2.40;99.90;;;;;;4410082;28;659192;-66
2022/12/10 11:19:22;;;;;;;31.50;12.47;;;2.30;99.90;;;;;;4390940;28;658654;-66
2022/12/10 11:22:17;;;;;;;22.90;11.87;;;2.20;99.90;;;;;;4410817;28;658140;-65
2022/12/10 11:25:12;;;;;;;20.45;10.85;;;2.10;99.90;;;;;;4388652;28;659795;-66
2022/12/10 11:28:00;;;;;;;36.53;13.93;;;2.20;99.90;;;;;;4389603;28;658712;-66
2022/12/10 11:31:01;;;;;;;34.33;14.27;;;2.10;99.90;;;;;;4391390;28;660110;-66
2022/12/10 11:33:51;;;;;;;41.50;14.03;;;2.10;99.90;;;;;;4383744;28;658860;-66
2022/12/10 11:36:42;;;;;;;49.70;16.30;;;2.00;99.90;;;;;;4392085;28;659167;-66
2022/12/10 11:39:44;;;;;;;62.30;18.60;;;1.90;99.90;;;;;;4395178;28;659008;-67
2022/12/10 11:42:37;;;;;;;46.50;17.30;;;1.90;99.90;;;;;;4386122;28;658776;-66
2022/12/10 11:45:25;;;;;;;31.30;13.30;;;2.00;99.90;;;;;;4391434;28;658510;-67
2022/12/10 11:48:19;;;;;;;31.87;14.17;;;2.00;99.90;;;;;;4389305;28;659857;-66
2022/12/10 11:51:11;;;;;;;43.50;15.97;;;2.00;99.90;;;;;;4387185;28;658854;-66
2022/12/10 11:54:12;;;;;;;48.23;17.80;;;1.90;99.90;;;;;;4384413;28;658833;-66
2022/12/10 11:57:02;;;;;;;26.48;12.80;;;1.80;99.90;;;;;;4385134;28;659087;-66
2022/12/10 11:59:52;;;;;;;28.10;13.13;;;1.80;99.90;;;;;;4386324;28;659717;-66
2022/12/10 12:02:52;;;;;;;28.63;14.00;;;1.80;99.90;;;;;;4390195;28;658951;-66
2022/12/10 12:06:06;;;;;;;29.27;14.73;;;1.90;99.90;;;;;;4389951;28;658586;-68
2022/12/10 12:08:56;;;;;;;48.03;20.30;;;1.70;99.90;;;;;;4397180;28;659149;-67
2022/12/10 12:11:56;;;;;;;43.97;21.03;;;1.70;99.90;;;;;;4383665;28;659604;-66
2022/12/10 12:14:45;;;;;;;38.53;15.77;;;1.80;99.90;;;;;;4388592;28;659455;-67
2022/12/10 12:17:33;;;;;;;35.40;15.80;;;1.80;99.90;;;;;;4384921;28;658744;-66
2022/12/10 12:20:23;;;;;;;176.15;49.08;;;1.70;99.90;;;;;;4392410;28;658766;-67
2022/12/10 12:23:15;;;;;;;141.90;50.63;;;1.70;99.90;;;;;;4392666;28;660091;-67
2022/12/10 12:26:04;;;;;;;66.57;29.10;;;1.70;99.90;;;;;;4387596;28;660558;-67
2022/12/10 12:28:53;;;;;;;42.60;17.73;;;1.70;99.90;;;;;;4392297;28;658967;-67
2022/12/10 12:31:41;;;;;;;38.97;15.55;;;1.70;99.90;;;;;;4391110;28;658710;-68
2022/12/10 12:34:34;;;;;;;41.57;16.17;;;1.70;99.90;;;;;;4409714;28;659460;-66
2022/12/10 12:37:22;;;;;;;37.70;15.63;;;1.60;99.90;;;;;;4364017;28;658924;-67
2022/12/10 12:40:13;;;;;;;34.07;14.93;;;1.60;99.90;;;;;;4411113;28;658257;-67
2022/12/10 12:43:02;;;;;;;34.03;15.07;;;1.50;99.90;;;;;;4368233;28;658772;-67
2022/12/10 12:45:50;;;;;;;31.80;13.77;;;1.40;99.90;;;;;;4417919;28;658501;-67
2022/12/10 12:48:40;;;;;;;39.73;15.67;;;1.40;99.90;;;;;;4397781;28;658862;-67
2022/12/10 12:51:30;;;;;;;35.03;14.37;;;1.40;99.90;;;;;;4392898;28;659094;-66
2022/12/10 12:54:17;;;;;;;40.10;17.60;;;1.40;99.90;;;;;;4382256;28;659422;-66
2022/12/10 12:57:07;;;;;;;42.07;19.07;;;1.40;99.90;;;;;;4409218;28;658641;-66
2022/12/10 12:59:57;;;;;;;44.03;17.30;;;1.40;99.90;;;;;;4388009;28;659316;-67
2022/12/10 13:02:48;;;;;;;41.90;18.57;;;1.40;99.90;;;;;;4388210;28;659709;-67
2022/12/10 13:05:36;;;;;;;43.03;17.57;;;1.30;99.90;;;;;;4381495;28;658446;-67
2022/12/10 13:08:29;;;;;;;43.13;18.33;;;1.30;99.90;;;;;;4418583;28;659841;-67
2022/12/10 13:11:19;;;;;;;41.47;16.90;;;1.30;99.90;;;;;;4390381;28;658621;-66
2022/12/10 13:14:17;;;;;;;43.60;17.53;;;1.30;99.90;;;;;;4391684;28;658785;-67
2022/12/10 13:17:10;;;;;;;41.37;16.27;;;1.20;99.90;;;;;;4380443;28;658399;-67
2022/12/10 13:20:31;;;;;;;44.50;16.40;;;1.30;99.90;;;;;;4392564;28;658781;-66
2022/12/10 13:23:31;;;;;;;41.00;16.63;;;1.30;99.90;;;;;;4384778;28;659009;-66
2022/12/10 13:26:24;;;;;;;41.37;16.80;;;1.30;99.90;;;;;;4387284;28;658816;-67
2022/12/10 13:29:25;;;;;;;51.33;18.43;;;1.30;99.90;;;;;;4391761;28;658981;-67
2022/12/10 13:32:15;;;;;;;54.80;20.40;;;1.20;99.90;;;;;;4364474;28;660131;-66
2022/12/10 13:35:28;;;;;;;60.63;24.03;;;1.20;99.90;;;;;;4389876;28;659034;-66
2022/12/10 13:38:20;;;;;;;59.60;23.50;;;1.20;99.90;;;;;;4366409;28;659801;-69
2022/12/10 13:44:37;;;;;;;48.50;19.20;;;1.20;99.90;;;;;;4385516;28;659081;-67
2022/12/10 13:47:27;;;;;;;53.47;19.80;;;1.20;99.90;;;;;;4407230;28;658939;-68
2022/12/10 13:50:17;;;;;;;49.97;18.27;;;1.20;99.90;;;;;;4413028;28;659258;-67
2022/12/10 13:53:08;;;;;;;51.80;18.70;;;1.20;99.90;;;;;;4411403;28;658886;-68
2022/12/10 13:56:00;;;;;;;52.47;19.07;;;1.10;99.90;;;;;;4391025;28;658555;-68
2022/12/10 13:58:49;;;;;;;54.83;18.93;;;1.10;99.90;;;;;;4385403;28;659501;-67
2022/12/10 14:01:40;;;;;;;51.57;19.53;;;1.10;99.90;;;;;;4389373;28;659075;-66
2022/12/10 14:04:37;;;;;;;48.63;19.30;;;1.00;99.90;;;;;;4391376;28;659882;-68
2022/12/10 14:07:24;;;;;;;51.30;18.63;;;1.00;99.90;;;;;;4389292;28;659422;-67
2022/12/10 14:10:14;;;;;;;44.53;17.43;;;0.90;99.90;;;;;;4385708;28;658653;-67
2022/12/10 14:13:01;;;;;;;46.43;16.97;;;0.90;99.90;;;;;;4387377;28;658352;-68
2022/12/10 14:15:52;;;;;;;47.60;17.63;;;0.80;99.90;;;;;;4411348;28;659259;-67
2022/12/10 14:18:42;;;;;;;46.90;17.67;;;0.80;99.90;;;;;;4383975;28;659530;-67
2022/12/10 14:21:33;;;;;;;47.03;16.77;;;0.80;99.90;;;;;;4388255;28;659497;-67
2022/12/10 14:24:32;;;;;;;43.27;17.40;;;0.80;99.90;;;;;;4364412;28;659252;-66
2022/12/10 14:27:20;;;;;;;45.23;17.73;;;0.80;99.90;;;;;;4392676;28;659357;-67
2022/12/10 14:30:16;;;;;;;44.87;15.63;;;0.70;99.90;;;;;;4390561;28;659213;-67
2022/12/10 14:33:03;;;;;;;37.80;15.23;;;0.70;99.90;;;;;;4389867;28;659661;-68
2022/12/10 14:35:52;;;;;;;39.45;15.85;;;0.70;99.90;;;;;;4394088;28;658489;-67
2022/12/10 14:38:40;;;;;;;39.53;14.90;;;0.70;99.90;;;;;;4407231;28;658416;-68
2022/12/10 14:41:28;;;;;;;42.60;16.33;;;0.70;99.90;;;;;;4411600;28;658068;-67